createdAt,value
2023-04-04T00:01:05.047Z,89.30
2023-04-04T00:03:06.588Z,87.90
2023-04-04T00:05:08.466Z,87.19
2023-04-04T00:07:10.347Z,87.99
2023-04-04T00:09:12.525Z,90.08
2023-04-04T00:11:14.088Z,91.21
2023-04-04T00:13:18.026Z,92.03
2023-04-04T00:15:19.453Z,92.87
2023-04-04T00:17:20.897Z,92.76
2023-04-04T00:19:22.798Z,93.28
2023-04-04T00:21:24.180Z,95.11
2023-04-04T00:23:25.575Z,95.64
2023-04-04T00:25:27.234Z,95.45
2023-04-04T00:27:28.703Z,94.08
2023-04-04T00:29:30.089Z,95.35
2023-04-04T00:31:32.344Z,94.42
2023-04-04T00:33:33.762Z,96.51
2023-04-04T00:35:35.232Z,96.09
2023-04-04T00:37:36.789Z,95.23
2023-04-04T00:39:38.224Z,97.99
2023-04-04T00:41:39.684Z,97.66
2023-04-04T00:43:41.343Z,97.75
2023-04-04T00:45:43.407Z,98.63
2023-04-04T00:47:46.497Z,98.56
2023-04-04T00:49:49.448Z,99.49
2023-04-04T00:51:50.857Z,100.00
2023-04-04T00:53:52.613Z,100.00
2023-04-04T00:55:54.240Z,100.00
2023-04-04T00:57:55.707Z,100.00
2023-04-04T00:59:59.162Z,100.00
2023-04-04T01:02:00.979Z,100.00
2023-04-04T01:04:02.760Z,100.00
2023-04-04T01:06:04.260Z,100.00
2023-04-04T01:08:06.482Z,100.00
2023-04-04T01:12:26.766Z,100.00
2023-04-04T01:14:32.253Z,100.00
2023-04-04T01:16:33.818Z,100.00
2023-04-04T01:18:37.260Z,100.00
2023-04-04T01:21:04.833Z,100.00
2023-04-04T01:23:06.799Z,100.00
2023-04-04T01:25:09.320Z,100.00
2023-04-04T01:27:10.908Z,100.00
2023-04-04T01:29:12.393Z,100.00
2023-04-04T01:31:15.895Z,100.00
2023-04-04T01:33:28.335Z,100.00
2023-04-04T01:35:43.667Z,100.00
2023-04-04T01:38:05.380Z,100.00
2023-04-04T01:40:35.609Z,100.00
2023-04-04T01:42:38.156Z,100.00
2023-04-04T01:44:39.830Z,100.00
2023-04-04T01:46:41.934Z,100.00
2023-04-04T01:48:43.471Z,100.00
2023-04-04T01:50:44.917Z,100.00
2023-04-04T01:52:46.517Z,100.00
2023-04-04T01:54:47.894Z,100.00
2023-04-04T01:56:49.281Z,100.00
2023-04-04T01:58:51.014Z,100.00
2023-04-04T02:00:52.468Z,100.00
2023-04-04T02:02:53.985Z,100.00
2023-04-04T02:04:55.460Z,100.00
2023-04-04T02:06:56.892Z,100.00
2023-04-04T02:08:58.302Z,100.00
2023-04-04T02:11:00.053Z,100.00
2023-04-04T02:13:01.469Z,100.00
2023-04-04T02:15:02.997Z,100.00
2023-04-04T02:17:04.643Z,100.00
2023-04-04T02:19:06.039Z,100.00
2023-04-04T02:21:07.788Z,100.00
2023-04-04T02:23:09.761Z,100.00
2023-04-04T02:25:11.201Z,100.00
2023-04-04T02:27:12.603Z,100.00
2023-04-04T02:29:14.260Z,100.00
2023-04-04T02:31:15.726Z,100.00
2023-04-04T02:33:17.224Z,100.00
2023-04-04T02:35:18.897Z,100.00
2023-04-04T02:37:20.284Z,100.00
2023-04-04T02:39:21.741Z,100.00
2023-04-04T02:41:23.286Z,100.00
2023-04-04T02:43:24.677Z,100.00
2023-04-04T02:45:26.097Z,100.00
2023-04-04T02:47:28.162Z,100.00
2023-04-04T02:49:29.588Z,100.00
2023-04-04T02:51:31.016Z,100.00
2023-04-04T02:53:32.930Z,100.00
2023-04-04T02:55:34.374Z,100.00
2023-04-04T02:57:35.946Z,100.00
2023-04-04T02:59:37.596Z,100.00
2023-04-04T03:01:39.154Z,100.00
2023-04-04T03:03:40.814Z,100.00
2023-04-04T03:05:42.529Z,100.00
2023-04-04T03:07:43.974Z,100.00
2023-04-04T03:09:45.367Z,100.00
2023-04-04T03:11:47.053Z,100.00
2023-04-04T03:13:48.466Z,100.00
2023-04-04T03:15:49.968Z,100.00
2023-04-04T03:17:52.601Z,100.00
2023-04-04T03:19:54.015Z,100.00
2023-04-04T03:21:55.460Z,100.00
2023-04-04T03:23:57.003Z,100.00
2023-04-04T03:25:58.438Z,100.00
2023-04-04T03:28:10.578Z,100.00
2023-04-04T03:30:12.760Z,100.00
2023-04-04T03:32:14.253Z,100.00
2023-04-04T03:34:15.649Z,100.00
2023-04-04T03:36:17.576Z,100.00
2023-04-04T03:38:18.968Z,100.00
2023-04-04T03:40:20.400Z,100.00
2023-04-04T03:42:22.187Z,100.00
2023-04-04T03:44:23.752Z,100.00
2023-04-04T03:46:25.153Z,100.00
2023-04-04T03:48:26.878Z,100.00
2023-04-04T03:50:28.286Z,100.00
2023-04-04T03:52:29.678Z,100.00
2023-04-04T03:54:31.351Z,100.00
2023-04-04T03:56:32.851Z,100.00
2023-04-04T03:58:35.960Z,100.00
2023-04-04T04:00:37.543Z,100.00
2023-04-04T04:02:39.421Z,100.00
2023-04-04T04:04:41.055Z,100.00
2023-04-04T04:06:42.815Z,100.00
2023-04-04T04:08:44.329Z,100.00
2023-04-04T04:10:45.730Z,100.00
2023-04-04T04:12:47.417Z,100.00
2023-04-04T04:14:48.844Z,100.00
2023-04-04T04:16:50.330Z,100.00
2023-04-04T04:18:52.031Z,100.00
2023-04-04T04:20:57.872Z,100.00
2023-04-04T04:22:59.376Z,100.00
2023-04-04T04:25:01.317Z,100.00
2023-04-04T04:27:02.726Z,100.00
2023-04-04T04:29:04.253Z,100.00
2023-04-04T04:31:07.681Z,100.00
2023-04-04T04:33:09.082Z,100.00
2023-04-04T04:35:10.513Z,100.00
2023-04-04T04:37:12.262Z,100.00
2023-04-04T04:39:13.658Z,100.00
2023-04-04T04:41:15.077Z,100.00
2023-04-04T04:43:16.636Z,100.00
2023-04-04T04:45:18.055Z,100.00
2023-04-04T04:47:19.460Z,100.00
2023-04-04T04:49:21.212Z,100.00
2023-04-04T04:51:22.739Z,100.00
2023-04-04T04:53:24.209Z,100.00
2023-04-04T04:55:25.924Z,100.00
2023-04-04T04:57:27.306Z,100.00
2023-04-04T04:59:28.776Z,98.58
2023-04-04T05:01:31.807Z,99.98
2023-04-04T05:03:33.279Z,94.95
2023-04-04T05:05:34.919Z,89.45
2023-04-04T05:07:37.016Z,84.61
2023-04-04T05:09:38.575Z,81.64
2023-04-04T05:11:40.070Z,79.44
2023-04-04T05:13:41.821Z,78.00
2023-04-04T05:15:43.269Z,80.33
2023-04-04T05:17:44.692Z,81.42
2023-04-04T05:19:46.646Z,80.85
2023-04-04T05:21:48.219Z,82.34
2023-04-04T05:23:49.644Z,84.83
2023-04-04T05:25:51.967Z,84.41
2023-04-04T05:27:53.363Z,84.58
2023-04-04T05:29:54.751Z,84.71
2023-04-04T05:31:56.719Z,82.66
2023-04-04T05:33:58.222Z,82.50
2023-04-04T05:36:00.688Z,80.13
2023-04-04T05:38:02.535Z,80.82
2023-04-04T05:40:04.277Z,83.91
2023-04-04T05:42:05.956Z,86.70
2023-04-04T05:44:07.729Z,90.19
2023-04-04T05:46:09.185Z,92.62
2023-04-04T05:48:10.633Z,94.25
2023-04-04T05:50:12.407Z,95.04
2023-04-04T05:52:13.816Z,93.75
2023-04-04T05:54:15.225Z,97.08
2023-04-04T05:56:17.205Z,96.52
2023-04-04T05:58:18.699Z,95.88
2023-04-04T06:00:20.392Z,95.62
2023-04-04T06:02:22.182Z,93.50
2023-04-04T06:04:23.600Z,94.45
2023-04-04T06:06:25.090Z,96.49
2023-04-04T06:08:26.984Z,95.86
2023-04-04T06:10:28.445Z,94.93
2023-04-04T06:12:29.938Z,93.37
2023-04-04T06:14:31.766Z,95.64
2023-04-04T06:16:33.310Z,94.65
2023-04-04T06:18:34.756Z,93.92
2023-04-04T06:20:36.363Z,92.65
2023-04-04T06:22:37.751Z,93.41
2023-04-04T06:24:39.147Z,91.71
2023-04-04T06:26:40.803Z,92.04
2023-04-04T06:28:49.337Z,92.38
2023-04-04T06:30:50.741Z,89.57
2023-04-04T06:32:52.758Z,90.27
2023-04-04T06:34:54.257Z,89.10
2023-04-04T06:36:55.638Z,88.60
2023-04-04T06:38:57.303Z,86.62
2023-04-04T06:40:58.731Z,84.40
2023-04-04T06:43:00.155Z,85.45
2023-04-04T06:45:01.758Z,86.89
2023-04-04T06:47:03.284Z,86.25
2023-04-04T06:49:04.997Z,83.19
2023-04-04T06:51:07.942Z,84.76
2023-04-04T06:53:09.566Z,81.67
2023-04-04T06:55:11.438Z,82.59
2023-04-04T06:57:13.051Z,81.31
2023-04-04T06:59:14.579Z,82.74
2023-04-04T07:01:16.202Z,79.57
2023-04-04T07:03:17.815Z,82.54
2023-04-04T07:05:19.440Z,78.44
2023-04-04T07:07:20.858Z,79.87
2023-04-04T07:09:29.286Z,78.92
2023-04-04T07:11:31.288Z,74.73
2023-04-04T07:13:32.709Z,77.75
2023-04-04T07:15:34.287Z,75.70
2023-04-04T07:17:37.829Z,77.03
2023-04-04T07:19:39.302Z,75.91
2023-04-04T07:21:41.117Z,72.76
2023-04-04T07:23:42.533Z,72.86
2023-04-04T07:25:44.508Z,71.54
2023-04-04T07:27:46.468Z,71.42
2023-04-04T07:29:47.909Z,68.15
2023-04-04T07:31:49.454Z,68.31
2023-04-04T07:33:52.277Z,68.87
2023-04-04T07:35:53.749Z,69.43
2023-04-04T07:37:55.238Z,65.01
2023-04-04T07:39:56.813Z,64.82
2023-04-04T07:41:58.233Z,66.25
2023-04-04T07:43:59.700Z,67.60
2023-04-04T07:46:01.520Z,66.70
2023-04-04T07:48:03.055Z,66.78
2023-04-04T07:50:04.780Z,63.28
2023-04-04T07:52:06.268Z,60.69
2023-04-04T07:54:07.875Z,61.65
2023-04-04T07:56:09.272Z,60.44
2023-04-04T07:58:10.694Z,61.89
2023-04-04T08:00:12.704Z,60.45
2023-04-04T08:02:14.149Z,62.39
2023-04-04T08:04:15.688Z,63.59
2023-04-04T08:06:17.112Z,60.72
2023-04-04T08:08:18.503Z,60.12
2023-04-04T08:10:20.096Z,61.82
2023-04-04T08:12:21.558Z,61.71
2023-04-04T08:14:23.027Z,62.04
2023-04-04T08:16:24.695Z,61.30
2023-04-04T08:18:26.096Z,60.89
2023-04-04T08:20:27.556Z,60.59
2023-04-04T08:22:29.063Z,59.08
2023-04-04T08:24:30.433Z,58.56
2023-04-04T08:26:31.869Z,55.64
2023-04-04T08:28:33.454Z,55.77
2023-04-04T08:30:34.859Z,57.21
2023-04-04T08:32:36.273Z,56.70
2023-04-04T08:34:38.091Z,55.11
2023-04-04T08:36:39.510Z,52.27
2023-04-04T08:38:40.926Z,51.38
2023-04-04T08:40:46.399Z,47.47
2023-04-04T08:42:50.342Z,50.34
2023-04-04T08:44:53.935Z,49.95
2023-04-04T08:46:56.102Z,49.77
2023-04-04T08:48:58.766Z,53.08
2023-04-04T08:51:01.986Z,54.18
2023-04-04T08:53:04.557Z,54.57
2023-04-04T08:55:06.519Z,56.21
2023-04-04T08:57:07.897Z,55.42
2023-04-04T08:59:09.837Z,53.42
2023-04-04T09:01:11.326Z,55.33
2023-04-04T09:03:23.052Z,54.37
2023-04-04T09:05:24.840Z,53.34
2023-04-04T09:07:28.100Z,54.16
2023-04-04T09:09:31.208Z,52.23
2023-04-04T09:11:33.936Z,53.69
2023-04-04T09:13:35.352Z,53.09
2023-04-04T09:15:38.624Z,56.17
2023-04-04T09:17:40.480Z,55.46
2023-04-04T09:19:41.983Z,54.78
2023-04-04T09:21:49.858Z,54.24
2023-04-04T09:24:01.398Z,51.53
2023-04-04T09:26:04.456Z,49.46
2023-04-04T09:28:06.221Z,47.60
2023-04-04T09:30:08.992Z,48.25
2023-04-04T09:32:14.742Z,48.52
2023-04-04T09:34:18.795Z,52.08
2023-04-04T09:36:20.720Z,49.85
2023-04-04T09:38:24.094Z,50.54
2023-04-04T09:40:25.789Z,50.63
2023-04-04T09:42:27.499Z,50.46
2023-04-04T09:44:29.721Z,51.66
2023-04-04T09:46:31.256Z,51.92
2023-04-04T09:48:34.573Z,51.95
2023-04-04T09:50:45.084Z,50.24
2023-04-04T09:52:49.016Z,49.34
2023-04-04T09:55:01.321Z,50.96
2023-04-04T09:57:03.290Z,48.09
2023-04-04T09:59:07.001Z,47.66
2023-04-04T10:01:09.392Z,49.31
2023-04-04T10:03:13.435Z,50.23
2023-04-04T10:05:16.579Z,51.29
2023-04-04T10:07:18.598Z,50.68
2023-04-04T10:09:21.336Z,49.54
2023-04-04T10:11:33.569Z,49.32
2023-04-04T10:13:36.758Z,49.73
2023-04-04T10:15:38.375Z,50.40
2023-04-04T10:17:41.333Z,52.46
2023-04-04T10:19:43.856Z,52.71
2023-04-04T10:21:46.666Z,53.32
2023-04-04T10:23:49.032Z,54.25
2023-04-04T10:25:51.172Z,53.14
2023-04-04T10:27:52.638Z,52.09
2023-04-04T10:29:54.389Z,51.64
2023-04-04T10:32:06.214Z,54.64
2023-04-04T10:34:07.602Z,54.39
2023-04-04T10:36:11.222Z,51.00
2023-04-04T10:38:13.117Z,51.50
2023-04-04T10:40:17.043Z,52.21
2023-04-04T10:42:19.594Z,51.70
2023-04-04T10:44:29.763Z,52.65
2023-04-04T10:46:33.757Z,53.20
2023-04-04T10:48:36.297Z,50.89
2023-04-04T10:50:38.912Z,50.95
2023-04-04T10:52:43.052Z,51.24
2023-04-04T10:54:45.142Z,54.36
2023-04-04T10:56:46.931Z,53.89
2023-04-04T10:58:49.366Z,55.54
2023-04-04T11:00:52.454Z,54.68
2023-04-04T11:02:58.006Z,54.75
2023-04-04T11:05:10.876Z,54.60
2023-04-04T11:07:16.961Z,55.62
2023-04-04T11:09:48.731Z,58.01
2023-04-04T11:12:10.093Z,57.97
2023-04-04T11:14:11.721Z,59.11
2023-04-04T11:16:17.901Z,57.97
2023-04-04T11:18:32.601Z,58.24
2023-04-04T11:20:36.284Z,56.76
2023-04-04T11:22:37.945Z,55.35
2023-04-04T11:24:43.182Z,54.23
2023-04-04T11:26:44.887Z,55.08
2023-04-04T11:28:46.618Z,54.35
2023-04-04T11:30:48.018Z,56.03
2023-04-04T11:33:03.759Z,53.51
2023-04-04T11:35:06.302Z,55.63
2023-04-04T11:37:16.978Z,53.53
2023-04-04T11:39:18.347Z,55.68
2023-04-04T11:41:21.442Z,52.91
2023-04-04T11:43:23.533Z,53.79
2023-04-04T11:45:25.737Z,54.03
2023-04-04T11:47:27.288Z,56.46
2023-04-04T11:49:29.774Z,57.45
2023-04-04T11:51:31.490Z,56.70
2023-04-04T11:53:33.044Z,57.67
2023-04-04T11:55:42.004Z,58.63
2023-04-04T11:57:43.484Z,57.54
2023-04-04T11:59:47.354Z,58.44
2023-04-04T12:01:49.270Z,57.58
2023-04-04T12:03:50.767Z,59.63
2023-04-04T12:05:52.432Z,57.14
2023-04-04T12:07:54.124Z,57.99
2023-04-04T12:09:56.266Z,55.03
2023-04-04T12:11:59.361Z,56.09
2023-04-04T12:14:01.291Z,54.82
2023-04-04T12:16:02.759Z,55.54
2023-04-04T12:18:08.157Z,54.93
2023-04-04T12:20:16.353Z,54.42
2023-04-04T12:22:17.818Z,53.91
2023-04-04T12:24:20.103Z,55.74
2023-04-04T12:26:21.794Z,55.14
2023-04-04T12:28:23.747Z,56.22
2023-04-04T12:30:25.649Z,56.43
2023-04-04T12:32:27.473Z,56.16
2023-04-04T12:34:31.672Z,55.88
2023-04-04T12:36:36.746Z,57.16
2023-04-04T12:39:00.438Z,54.65
2023-04-04T12:41:02.773Z,54.43
2023-04-04T12:43:08.744Z,54.16
2023-04-04T12:45:10.849Z,53.40
2023-04-04T12:47:13.331Z,52.33
2023-04-04T12:49:14.849Z,53.22
2023-04-04T12:51:16.254Z,51.05
2023-04-04T12:53:29.970Z,50.60
2023-04-04T12:55:32.191Z,50.37
2023-04-04T12:57:34.304Z,47.97
2023-04-04T12:59:36.486Z,50.57
2023-04-04T13:01:38.481Z,50.88
2023-04-04T13:03:39.991Z,50.33
2023-04-04T13:05:43.624Z,47.75
2023-04-04T13:07:45.146Z,47.75
2023-04-04T13:10:00.882Z,48.12
2023-04-04T13:12:06.863Z,47.38
2023-04-04T13:14:08.898Z,46.73
2023-04-04T13:16:29.362Z,46.93
2023-04-04T13:18:39.394Z,48.37
2023-04-04T13:20:41.146Z,48.38
2023-04-04T13:22:43.557Z,47.57
2023-04-04T13:24:46.083Z,49.31
2023-04-04T13:26:47.684Z,49.24
2023-04-04T13:28:49.128Z,47.42
2023-04-04T13:30:50.580Z,43.67
2023-04-04T13:32:52.295Z,42.45
2023-04-04T13:34:53.710Z,42.74
2023-04-04T13:36:55.222Z,43.35
2023-04-04T13:38:57.231Z,43.74
2023-04-04T13:40:59.170Z,45.22
2023-04-04T13:43:00.650Z,47.17
2023-04-04T13:45:02.406Z,46.28
2023-04-04T13:47:03.838Z,46.14
2023-04-04T13:49:05.279Z,43.89
2023-04-04T13:51:06.842Z,43.97
2023-04-04T13:53:08.504Z,43.46
2023-04-04T13:55:10.590Z,43.82
2023-04-04T13:57:12.445Z,43.95
2023-04-04T13:59:13.870Z,44.79
2023-04-04T14:01:15.477Z,45.61
2023-04-04T14:03:17.380Z,43.90
2023-04-04T14:05:19.182Z,46.55
2023-04-04T14:07:20.586Z,43.91
2023-04-04T14:09:22.529Z,46.47
2023-04-04T14:11:24.078Z,43.05
2023-04-04T14:13:25.515Z,42.32
2023-04-04T14:15:26.984Z,45.18
2023-04-04T14:17:28.444Z,46.55
2023-04-04T14:19:30.228Z,46.74
2023-04-04T14:21:31.730Z,44.88
2023-04-04T14:23:33.133Z,44.65
2023-04-04T14:25:35.007Z,44.68
2023-04-04T14:27:36.882Z,44.75
2023-04-04T14:29:38.277Z,45.47
2023-04-04T14:31:39.800Z,44.08
2023-04-04T14:33:41.344Z,44.24
2023-04-04T14:35:42.981Z,43.52
2023-04-04T14:37:44.613Z,44.46
2023-04-04T14:39:46.383Z,45.08
2023-04-04T14:41:48.298Z,43.05
2023-04-04T14:43:49.698Z,41.61
2023-04-04T14:45:51.504Z,43.21
2023-04-04T14:47:52.966Z,43.87
2023-04-04T14:49:54.994Z,43.25
2023-04-04T14:51:57.731Z,42.62
2023-04-04T14:53:59.741Z,42.53
2023-04-04T14:56:01.178Z,42.75
2023-04-04T14:58:03.344Z,43.08
2023-04-04T15:00:05.564Z,44.54
2023-04-04T15:02:07.169Z,44.69
2023-04-04T15:04:08.766Z,44.67
2023-04-04T15:06:10.202Z,43.64
2023-04-04T15:08:11.602Z,43.41
2023-04-04T15:10:13.757Z,44.01
2023-04-04T15:12:15.160Z,43.55
2023-04-04T15:14:16.629Z,45.23
2023-04-04T15:16:18.115Z,45.57
2023-04-04T15:18:19.577Z,44.30
2023-04-04T15:20:20.998Z,43.85
2023-04-04T15:22:22.517Z,45.02
2023-04-04T15:24:23.954Z,45.26
2023-04-04T15:26:25.344Z,44.34
2023-04-04T15:28:26.844Z,46.37
2023-04-04T15:30:29.345Z,44.29
2023-04-04T15:32:30.879Z,42.76
2023-04-04T15:34:32.383Z,43.04
2023-04-04T15:38:35.459Z,43.48
2023-04-04T15:40:37.176Z,43.63
2023-04-04T15:42:38.921Z,42.78
2023-04-04T15:44:40.300Z,45.07
2023-04-04T15:46:42.398Z,44.59
2023-04-04T15:48:43.839Z,44.38
2023-04-04T15:50:45.307Z,46.35
2023-04-04T15:52:46.953Z,46.81
2023-04-04T15:54:48.340Z,46.96
2023-04-04T15:56:49.753Z,47.64
2023-04-04T15:58:51.527Z,48.86
2023-04-04T16:00:53.504Z,48.83
2023-04-04T16:02:58.655Z,49.54
2023-04-04T16:05:00.512Z,49.88
2023-04-04T16:07:01.910Z,50.65
2023-04-04T16:09:03.477Z,50.00
2023-04-04T16:11:05.053Z,51.58
2023-04-04T16:13:06.460Z,50.14
2023-04-04T16:15:08.569Z,51.41
2023-04-04T16:17:10.124Z,51.66
2023-04-04T16:19:11.526Z,52.92
2023-04-04T16:21:12.962Z,51.75
2023-04-04T16:23:14.626Z,53.38
2023-04-04T16:25:17.306Z,51.99
2023-04-04T16:27:18.721Z,51.75
2023-04-04T16:29:20.398Z,51.24
2023-04-04T16:31:21.906Z,50.08
2023-04-04T16:33:23.336Z,50.66
2023-04-04T16:35:25.088Z,50.22
2023-04-04T16:37:26.505Z,49.22
2023-04-04T16:39:27.893Z,48.57
2023-04-04T16:41:29.596Z,47.33
2023-04-04T16:43:31.020Z,48.80
2023-04-04T16:45:32.427Z,49.07
2023-04-04T16:47:34.719Z,49.53
2023-04-04T16:49:36.186Z,49.39
2023-04-04T16:51:37.701Z,49.97
2023-04-04T16:53:39.460Z,50.50
2023-04-04T16:55:40.955Z,50.78
2023-04-04T16:57:42.610Z,52.17
2023-04-04T16:59:44.178Z,51.00
2023-04-04T17:01:45.606Z,50.24
2023-04-04T17:03:47.058Z,52.74
2023-04-04T17:05:48.549Z,51.43
2023-04-04T17:07:49.970Z,51.54
2023-04-04T17:09:51.370Z,51.84
2023-04-04T17:11:52.938Z,51.20
2023-04-04T17:13:54.363Z,55.14
2023-04-04T17:15:55.760Z,53.45
2023-04-04T17:17:57.507Z,52.00
2023-04-04T17:19:58.929Z,50.80
2023-04-04T17:22:00.716Z,50.56
2023-04-04T17:24:02.694Z,52.32
2023-04-04T17:26:04.545Z,52.93
2023-04-04T17:28:05.965Z,54.82
2023-04-04T17:30:08.101Z,53.00
2023-04-04T17:32:09.610Z,54.11
2023-04-04T17:34:12.908Z,56.95
2023-04-04T17:36:14.640Z,55.88
2023-04-04T17:38:16.033Z,55.70
2023-04-04T17:40:17.545Z,56.89
2023-04-04T17:42:19.264Z,58.88
2023-04-04T17:44:21.175Z,59.37
2023-04-04T17:46:22.611Z,59.58
2023-04-04T17:48:24.421Z,61.14
2023-04-04T17:50:26.481Z,64.51
2023-04-04T17:52:27.876Z,63.43
2023-04-04T17:54:29.466Z,65.11
2023-04-04T17:56:31.329Z,65.57
2023-04-04T17:58:32.783Z,66.69
2023-04-04T18:00:34.439Z,66.29
2023-04-04T18:02:35.830Z,64.85
2023-04-04T18:04:38.399Z,65.82
2023-04-04T18:06:41.623Z,66.42
2023-04-04T18:08:43.381Z,66.41
2023-04-04T18:10:44.911Z,65.97
2023-04-04T18:12:46.487Z,64.99
2023-04-04T18:14:48.459Z,63.59
2023-04-04T18:16:49.860Z,66.51
2023-04-04T18:18:51.427Z,67.79
2023-04-04T18:20:53.074Z,68.79
2023-04-04T18:22:54.473Z,68.30
2023-04-04T18:24:55.937Z,66.22
2023-04-04T18:26:57.316Z,65.41
2023-04-04T18:28:59.039Z,67.33
2023-04-04T18:31:00.621Z,67.61
2023-04-04T18:33:02.305Z,67.69
2023-04-04T18:35:03.956Z,68.11
2023-04-04T18:37:05.526Z,67.56
2023-04-04T18:39:06.988Z,68.61
2023-04-04T18:41:08.459Z,69.76
2023-04-04T18:43:10.079Z,68.25
2023-04-04T18:45:11.850Z,70.17
2023-04-04T18:47:13.267Z,71.00
2023-04-04T18:49:15.036Z,70.24
2023-04-04T18:51:16.657Z,70.40
2023-04-04T18:53:18.095Z,69.40
2023-04-04T18:55:19.809Z,68.91
2023-04-04T18:57:21.217Z,68.59
2023-04-04T18:59:22.755Z,70.11
2023-04-04T19:01:24.445Z,70.18
2023-04-04T19:03:26.049Z,68.01
2023-04-04T19:05:31.789Z,66.04
2023-04-04T19:07:34.931Z,66.49
2023-04-04T19:09:37.363Z,66.56
2023-04-04T19:11:38.804Z,66.90
2023-04-04T19:13:40.684Z,67.23
2023-04-04T19:15:42.970Z,66.84
2023-04-04T19:17:44.768Z,64.33
2023-04-04T19:19:46.568Z,62.93
2023-04-04T19:21:48.070Z,64.33
2023-04-04T19:23:49.467Z,65.94
2023-04-04T19:25:51.110Z,64.94
2023-04-04T19:27:52.526Z,66.27
2023-04-04T19:29:54.058Z,64.48
2023-04-04T19:31:55.661Z,65.75
2023-04-04T19:33:57.271Z,63.81
2023-04-04T19:36:09.662Z,62.98
2023-04-04T19:38:13.633Z,64.83
2023-04-04T19:40:15.764Z,64.64
2023-04-04T19:42:26.036Z,64.87
2023-04-04T19:44:27.606Z,65.15
2023-04-04T19:46:31.433Z,66.12
2023-04-04T19:48:42.201Z,66.34
2023-04-04T19:50:43.921Z,66.43
2023-04-04T19:52:45.358Z,65.82
2023-04-04T19:54:46.798Z,64.44
2023-04-04T19:56:49.881Z,65.34
2023-04-04T19:58:55.931Z,64.88
2023-04-04T20:00:57.353Z,65.18
2023-04-04T20:03:07.110Z,65.13
2023-04-04T20:05:30.398Z,64.75
2023-04-04T20:07:31.800Z,65.52
2023-04-04T20:09:35.268Z,66.50
2023-04-04T20:11:36.870Z,66.66
2023-04-04T20:13:39.688Z,67.02
2023-04-04T20:15:47.716Z,67.62
2023-04-04T20:17:49.251Z,67.60
2023-04-04T20:19:50.710Z,69.79
2023-04-04T20:21:52.759Z,70.49
2023-04-04T20:23:57.041Z,70.05
2023-04-04T20:26:05.148Z,71.25
2023-04-04T20:28:07.052Z,72.42
2023-04-04T20:30:11.484Z,71.81
2023-04-04T20:32:13.039Z,72.70
2023-04-04T20:34:50.363Z,73.48
2023-04-04T20:36:52.156Z,73.98
2023-04-04T20:38:53.632Z,74.92
2023-04-04T20:40:55.175Z,73.80
2023-04-04T20:42:56.577Z,72.81
2023-04-04T20:45:10.047Z,73.67
2023-04-04T20:47:51.296Z,76.16
2023-04-04T20:49:52.793Z,76.52
2023-04-04T20:51:54.199Z,78.05
2023-04-04T20:53:58.058Z,78.28
2023-04-04T20:56:01.155Z,79.32
2023-04-04T20:58:09.360Z,77.68
2023-04-04T21:00:38.381Z,79.03
2023-04-04T21:02:39.880Z,79.32
2023-04-04T21:04:41.882Z,81.56
2023-04-04T21:06:43.595Z,78.53
2023-04-04T21:08:49.752Z,77.57
2023-04-04T21:10:56.044Z,77.65
2023-04-04T21:13:00.035Z,77.00
2023-04-04T21:15:01.828Z,78.36
2023-04-04T21:17:05.840Z,76.97
2023-04-04T21:19:10.649Z,80.21
2023-04-04T21:21:21.264Z,79.36
2023-04-04T21:23:25.758Z,78.56
2023-04-04T21:25:43.981Z,80.14
2023-04-04T21:27:53.834Z,81.54
2023-04-04T21:29:55.215Z,82.85
2023-04-04T21:31:57.522Z,83.30
2023-04-04T21:34:08.085Z,83.19
2023-04-04T21:36:24.666Z,82.94
2023-04-04T21:38:29.659Z,83.68
2023-04-04T21:40:31.826Z,84.37
2023-04-04T21:42:33.225Z,84.93
2023-04-04T21:44:34.786Z,85.20
2023-04-04T21:46:38.446Z,86.02
2023-04-04T21:48:39.939Z,86.47
2023-04-04T21:50:41.817Z,86.66
2023-04-04T21:52:43.408Z,84.27
2023-04-04T21:54:44.846Z,84.20
2023-04-04T21:56:46.684Z,83.87
2023-04-04T21:58:48.697Z,82.87
2023-04-04T22:00:50.155Z,82.91
2023-04-04T22:02:51.746Z,83.34
2023-04-04T22:04:53.206Z,82.99
2023-04-04T22:06:54.635Z,83.53
2023-04-04T22:08:57.850Z,83.95
2023-04-04T22:11:01.409Z,83.76
2023-04-04T22:13:03.729Z,82.70
2023-04-04T22:15:08.020Z,83.66
2023-04-04T22:17:09.479Z,83.42
2023-04-04T22:19:11.591Z,84.88
2023-04-04T22:21:16.632Z,84.66
2023-04-04T22:23:18.116Z,83.22
2023-04-04T22:25:19.536Z,83.76
2023-04-04T22:27:21.146Z,83.75
2023-04-04T22:29:22.574Z,83.49
2023-04-04T22:31:24.018Z,84.17
2023-04-04T22:33:25.648Z,83.48
2023-04-04T22:35:27.132Z,84.42
2023-04-04T22:37:28.551Z,84.66
2023-04-04T22:39:30.353Z,84.99
2023-04-04T22:41:31.769Z,83.97
2023-04-04T22:43:33.201Z,82.57
2023-04-04T22:45:34.974Z,83.74
2023-04-04T22:47:36.381Z,84.18
2023-04-04T22:49:37.828Z,83.61
2023-04-04T22:51:39.373Z,84.03
2023-04-04T22:53:41.139Z,84.81
2023-04-04T22:55:42.545Z,85.71
2023-04-04T22:57:44.225Z,83.82
2023-04-04T22:59:45.670Z,82.34
2023-04-04T23:01:47.164Z,81.93
2023-04-04T23:03:49.047Z,83.09
2023-04-04T23:05:50.491Z,82.33
2023-04-04T23:07:51.915Z,82.45
2023-04-04T23:09:53.553Z,82.73
2023-04-04T23:11:54.992Z,84.01
2023-04-04T23:13:56.371Z,83.27
2023-04-04T23:15:58.009Z,84.72
2023-04-04T23:17:59.485Z,83.45
2023-04-04T23:20:01.844Z,83.03
2023-04-04T23:22:03.624Z,83.88
2023-04-04T23:24:06.349Z,84.17
2023-04-04T23:26:07.744Z,84.70
2023-04-04T23:28:09.522Z,84.31
2023-04-04T23:30:14.116Z,84.57
2023-04-04T23:32:15.645Z,85.98
2023-04-04T23:34:17.435Z,85.71
2023-04-04T23:36:18.907Z,86.07
2023-04-04T23:38:20.368Z,86.64
2023-04-04T23:40:22.205Z,86.04
2023-04-04T23:42:23.598Z,87.59
2023-04-04T23:44:25.090Z,86.85
2023-04-04T23:46:26.762Z,86.01
2023-04-04T23:48:28.715Z,85.93
2023-04-04T23:50:30.184Z,86.59
2023-04-04T23:52:31.894Z,85.37
2023-04-04T23:54:33.314Z,87.55
2023-04-04T23:56:35.759Z,87.90
2023-04-04T23:58:37.534Z,87.18
